• Join FlightAware (Why Join?)
  • Login
  • US Flag 
01:04AM EDT


 

Airport Tracker/Info


-or-


 

Live Flight TrackerFlight Track Log ✈ LKF61 ✈ 25-Mar-2014 ✈ KAGS - KTEB

Flight Track Log - Related Links

Times and Time Zones

All times are in EDT time to prevent confusion due to time zone crossing. See the LKF61 flight status page for this flight to view local times or setup timezone preferences in your user account.

Time Position Orientation Groundspeed Altitude Reporting Facility
EDT Latitude Longitude Course Direction KTS MPH feet Rate Location/Type
02:17PM 33.5619 -81.9953 55° Northeast 304 350 9,800  Level Jacksonville Center
02:18PM 33.6008 -81.8950 65° Northeast 312 359 10,400 1,740 Climbing Jacksonville Center
02:19PM 33.6375 -81.7775 69° East 341 392 13,300 2,940 Climbing Jacksonville Center
02:20PM 33.6739 -81.6522 71° East 369 425 16,300 2,520 Climbing Jacksonville Center
02:21PM 33.6761 -81.3504 55° Northeast  Level FlightAware Approximate
02:21PM 33.7394 -81.5439 54° Northeast 384 442 18,400  Level Jacksonville Center
02:22PM 33.7438 -81.2337 55° Northeast  Level FlightAware Approximate
02:22PM 33.8281 -81.4325 46° Northeast 419 482 20,400  Level Jacksonville Center
02:23PM 33.9164 -81.3133 48° Northeast 447 514 22,400 1,980 Climbing Jacksonville Center
02:24PM 34.0064 -81.1892 49° Northeast 467 537 24,400 1,980 Climbing Jacksonville Center
02:25PM 34.0817 -81.0422 58° Northeast 494 568 26,400 1,980 Climbing Jacksonville Center
02:26PM 34.1544 -80.8900 60° Northeast 510 587 28,400 1,980 Climbing Jacksonville Center
02:27PM 34.2464 -80.7700 47° Northeast 499 574 30,400 1,740 Climbing Jacksonville Center
02:28PM 34.3444 -80.6492 45° Northeast 493 567 31,900 1,500 Climbing Jacksonville Center
02:29PM 34.4319 -80.5414 45° Northeast 493 567 33,400 1,500 Climbing Jacksonville Center
02:31PM 34.6172 -80.3011 47° Northeast 523 602 36,200 1,320 Climbing Washington Center
02:32PM 34.7117 -80.1803 46° Northeast 505 581 37,300 840 Climbing Washington Center
02:33PM 34.8061 -80.0614 46° Northeast 493 567 38,000 540 Climbing Washington Center
02:34PM 34.8956 -79.9500 46° Northeast 493 567 38,400 360 Climbing Washington Center
02:35PM 34.9919 -79.8283 46° Northeast 493 567 38,800 300 Climbing Washington Center
02:36PM 35.0858 -79.7064 47° Northeast 493 567 39,000 -180 Climbing Washington Center
02:37PM 35.1922 -79.5822 44° Northeast 498 573 38,500 -540 Descending Washington Center
02:38PM 35.3206 -79.4867 31° Northeast 519 597 38,000 -300 Descending Washington Center
02:39PM 35.4617 -79.3867 30° Northeast 526 605 38,000  Level Washington Center
02:40PM 35.5728 -79.3050 31° Northeast 526 605 38,000  Level Washington Center
02:41PM 35.6986 -79.2164 30° Northeast 526 605 38,000  Level Washington Center
02:42PM 35.8244 -79.1247 31° Northeast 526 605 38,000  Level Washington Center
02:43PM 35.9500 -79.0328 31° Northeast 526 605 38,000  Level Washington Center
02:44PM 36.0739 -78.9353 32° Northeast 526 605 38,000  Level Washington Center
02:45PM 36.1994 -78.8456 30° Northeast 526 605 38,000  Level Washington Center
02:46PM 36.3272 -78.7503 31° Northeast 526 605 38,000  Level Washington Center
02:47PM 36.4528 -78.6547 31° Northeast 526 605 38,000  Level Washington Center
02:48PM 36.5783 -78.5611 31° Northeast 526 605 38,000  Level Washington Center
02:49PM 36.7122 -78.4550 32° Northeast 526 605 38,000  Level Washington Center
02:50PM 36.8397 -78.3611 31° Northeast 526 605 38,000  Level Washington Center
02:51PM 36.9714 -78.2567 32° Northeast 552 635 38,000  Level Washington Center
02:52PM 37.0944 -78.1644 31° Northeast 552 635 38,000  Level Washington Center
02:53PM 37.2194 -78.0694 31° Northeast 542 624 38,000  Level Washington Center
02:54PM 37.3467 -77.9717 31° Northeast 532 612 38,000  Level Washington Center
02:55PM 37.4717 -77.8736 32° Northeast 532 612 38,000  Level Washington Center
02:56PM 37.5944 -77.7697 34° Northeast 527 606 38,000  Level Washington Center
02:57PM 37.7197 -77.6581 35° Northeast 532 612 38,000 -300 Level Washington Center
02:58PM 37.8403 -77.5456 36° Northeast 532 612 37,500 -900 Descending Washington Center
02:59PM 37.9653 -77.4328 35° Northeast 544 626 36,300 -1,200 Descending Washington Center
03:00PM 38.0814 -77.3303 35° Northeast 550 633 35,200 -1,260 Descending Washington Center
03:01PM 38.2081 -77.2117 36° Northeast 555 639 33,900 -1,320 Descending Washington Center
03:02PM 38.3328 -77.0950 36° Northeast 555 639 32,600 -1,440 Descending Washington Center
03:03PM 38.4614 -76.9783 35° Northeast 555 639 31,100 -1,500 Descending Washington Center
03:04PM 38.5919 -76.8533 37° Northeast 561 646 29,600 -1,500 Descending Washington Center
03:05PM 38.7203 -76.7306 37° Northeast 566 651 28,100 -1,680 Descending Washington Center
03:06PM 38.8361 -76.5964 42° Northeast 566 651 26,300 -1,680 Descending Washington Center
03:07PM 38.9519 -76.4644 42° Northeast 556 640 24,800 -1,200 Descending Washington Center
03:08PM 39.0611 -76.3375 42° Northeast 538 619 24,000 -420 Descending Washington Center
03:09PM 39.1722 -76.2075 42° Northeast 532 612 24,000 -540 Level Washington Center
03:10PM 39.2981 -76.0664 41° Northeast 546 628 23,000 -2,160 Descending Washington Center
03:12PM 39.5500 -75.8333 35° Northeast 486 559 17,300 -2,400 Descending Philadelphia TRACON
03:13PM 39.6333 -75.7500 38° Northeast 434 499 15,700 -1,860 Descending Philadelphia TRACON
03:14PM 39.7333 -75.6500 38° Northeast 435 501 13,800 -1,320 Descending Philadelphia TRACON
03:15PM 39.8333 -75.5667 33° Northeast 414 476 13,100 -360 Descending Philadelphia TRACON
03:16PM 39.9333 -75.4833 33° Northeast 423 487 13,100  Level Philadelphia TRACON
03:17PM 40.0333 -75.3833 37° Northeast 423 487 13,100  Level Philadelphia TRACON
03:18PM 40.1333 -75.3000 32° Northeast 421 484 13,100 -1,140 Level Philadelphia TRACON
03:21PM 40.3500 -75.0833 37° Northeast 311 358 8,800 -1,560 Descending New York TRACON
03:22PM 40.4000 -75.0000 52° Northeast 302 348 7,100 -1,620 Descending New York TRACON
03:23PM 40.4500 -74.9333 45° Northeast 265 305 5,600 -1,500 Descending New York TRACON
03:24PM 40.5000 -74.8667 45° Northeast 258 297 4,200 -540 Descending New York TRACON
03:26PM 40.6333 -74.7833 25° Northeast 264 304 4,000 -60 Descending New York TRACON
03:28PM 40.7500 -74.6833 33° Northeast 263 303 4,000 -180 Level New York TRACON
03:31PM 40.9000 -74.4667 78° East 254 292 3,100 -240 Descending New York TRACON
03:32PM 40.9333 -74.3833 62° Northeast 250 288 3,100 -120 Level New York TRACON
03:34PM 40.9667 -74.2167 75° East 249 287 2,900 -300 Descending New York TRACON
03:36PM 40.9833 -74.0667 82° East 196 226 2,000 -540 Descending New York TRACON
03:38PM 40.9000 -74.0500 171° South 139 160 800 -600 Descending New York TRACON
03:40PM 40.8500 -74.0500 133° Southeast  Level FlightAware Approximate
03:47PM 40.8501 -74.0608 133° Southeast  Level Estimated